Terminal Aerodrome Forecast
Issued by NWS Grand Forks, ND

Home | Current Version | Previous Version | Text Only | Print | Product List | Glossary Off
Versions: 1 2 3 4 5 6 7 8 9 10 11 12 13 14 15 16 17

000
FTUS43 KFGF 121700
TAFGFK
TAF
KGFK 121725Z 1218/1318 28008KT P6SM SCT080
     FM121900 28007KT P6SM BKN060
     FM130000 25005KT P6SM SCT060
     FM130200 20005KT P6SM SKC
     FM131100 19007KT P6SM BKN250
     FM131600 19015G22KT P6SM BKN250=

USA.gov is the U.S. government's official web portal to all federal, state and local government web resources and services.